APL New Jersey — A8NM6 — position and weather

sailwx.info

Track history (hours):
 
Tides and Currents Weather Stations Pressure Air Temp Water Temp Dewpoint Dewpoint Depression Visibility Wind Speed Wind Dir Waves Ship Positions

APL New Jersey

Last reported at 2017-Jul-18 17:49 UTC. Time now 2017-Jul-22 14:51 UTC.
Position N 01°16' E 104°08'.

Length 293 m; draft 11.2 m.

Type: Ship (hazmat cat A). MMSI: 636013522.

Date/timePositionNaut miles runAvg speedWind from/ knotsBaromVisibWave heightAir tempDewpointWater temp
2017-Jul-18 17:49N 01°16' E 104°08'514.2
2017-Jul-18 17:30N 01°15' E 104°03'714.1
2017-Jul-18 17:01N 01°14' E 103°57'815.0
2017-Jul-18 16:31N 01°11' E 103°50'714.9
2017-Jul-18 16:00N 01°06' E 103°44'612.9
2017-Jul-18 15:30N 01°03' E 103°38'612.2
2017-Jul-18 15:01N 01°06' E 103°33'1312.4
2017-Jul-18 13:58N 01°13' E 103°22'612.5
2017-Jul-18 13:27N 01°17' E 103°17'306 6.6
2017-Jul-16 15:29N 04°23' E 099°15'  
Track history (hours):
 
Tides and Currents Weather Stations Pressure Air Temp Water Temp Dewpoint Dewpoint Depression Visibility Wind Speed Wind Dir Waves Ship Positions

APL New Jersey

Last reported at 2017-Jul-18 17:49 UTC. Time now 2017-Jul-22 14:51 UTC.
Position N 01°16' E 104°08'.

Length 293 m; draft 11.2 m.

Type: Ship (hazmat cat A). MMSI: 636013522.

Date/timePositionNaut miles runAvg speedWind from/ knotsBaromVisibWave heightAir tempDewpointWater temp
2017-Jul-18 17:49N 01°16' E 104°08'514.2
2017-Jul-18 17:30N 01°15' E 104°03'714.1
2017-Jul-18 17:01N 01°14' E 103°57'815.0
2017-Jul-18 16:31N 01°11' E 103°50'714.9
2017-Jul-18 16:00N 01°06' E 103°44'612.9
2017-Jul-18 15:30N 01°03' E 103°38'612.2
2017-Jul-18 15:01N 01°06' E 103°33'1312.4
2017-Jul-18 13:58N 01°13' E 103°22'612.5
2017-Jul-18 13:27N 01°17' E 103°17'306 6.6
2017-Jul-16 15:29N 04°23' E 099°15'  

Dump ship's entire track history